Time;durP1;ratioP1;P1;durP2;ratioP2;P2;SDS_P1;SDS_P2;PMS_P1;PMS_P2;Temp;Humidity;BMP_temperature;BMP_pressure;BME280_temperature;BME280_humidity;BME280_pressure;Samples;Min_cycle;Max_cycle;Signal;HPM_P1;HPM_P2
2021/11/23 00:01:26;;;;;;;;;;;;;;;3.13;58.50;100668.03;1706127;83;20247;-62
2021/11/23 00:03:56;;;;;;;;;;;;;;;3.06;58.41;100665.53;1706989;84;20247;-62
2021/11/23 00:06:25;;;;;;;;;;;;;;;3.04;58.52;100671.59;1710739;84;20283;-61
2021/11/23 00:08:55;;;;;;;;;;;;;;;3.06;58.56;100677.72;1710494;83;20235;-62
2021/11/23 00:11:25;;;;;;;;;;;;;;;3.05;58.51;100676.01;1710596;84;20295;-62
2021/11/23 00:13:54;;;;;;;;;;;;;;;3.03;58.21;100680.21;1711017;83;20183;-62
2021/11/23 00:16:25;;;;;;;;;;;;;;;3.03;58.09;100678.86;1710821;83;20268;-63
2021/11/23 00:18:54;;;;;;;;;;;;;;;3.03;58.13;100676.65;1710647;84;20250;-63
2021/11/23 00:21:23;;;;;;;;;;;;;;;3.03;58.06;100674.80;1711139;83;20239;-61
2021/11/23 00:23:52;;;;;;;;;;;;;;;3.03;58.09;100680.71;1710592;84;20290;-63
2021/11/23 00:26:22;;;;;;;;;;;;;;;3.03;58.22;100678.86;1711151;84;20543;-62
2021/11/23 00:28:50;;;;;;;;;;;;;;;3.01;58.39;100677.30;1710696;82;20569;-62
2021/11/23 00:31:18;;;;;;;;;;;;;;;2.96;58.44;100670.09;1710953;84;20203;-62
2021/11/23 00:33:51;;;;;;;;;;;;;;;2.88;58.70;100680.28;1710923;84;20202;-61
2021/11/23 00:36:19;;;;;;;;;;;;;;;2.82;58.94;100688.46;1710788;83;20299;-62
2021/11/23 00:38:47;;;;;;;;;;;;;;;2.79;58.99;100696.01;1711068;84;20590;-64
2021/11/23 00:41:18;;;;;;;;;;;;;;;2.77;58.93;100699.35;1710612;84;20239;-63
2021/11/23 00:43:47;;;;;;;;;;;;;;;2.79;58.79;100700.92;1711027;82;20208;-62
2021/11/23 00:46:16;;;;;;;;;;;;;;;2.73;58.81;100692.02;1710852;83;20231;-62
2021/11/23 00:48:44;;;;;;;;;;;;;;;2.70;58.52;100684.67;1710651;84;20284;-61
2021/11/23 00:51:12;;;;;;;;;;;;;;;2.67;58.66;100685.81;1710960;84;20183;-62
2021/11/23 00:53:42;;;;;;;;;;;;;;;2.66;58.42;100692.22;1710786;84;20250;-66
2021/11/23 00:56:10;;;;;;;;;;;;;;;2.68;58.26;100690.22;1714866;81;20263;-64
2021/11/23 00:58:41;;;;;;;;;;;;;;;2.69;57.78;100693.29;1737421;82;20174;-61
2021/11/23 01:01:10;;;;;;;;;;;;;;;2.66;57.75;100696.77;1707684;83;20148;-61
2021/11/23 01:03:38;;;;;;;;;;;;;;;2.63;57.61;100691.14;1695460;83;20162;-62
2021/11/23 01:06:09;;;;;;;;;;;;;;;2.59;57.14;100696.44;1727772;82;20209;-61
2021/11/23 01:08:39;;;;;;;;;;;;;;;2.58;57.22;100701.99;1720757;83;20192;-61
2021/11/23 01:11:10;;;;;;;;;;;;;;;2.55;57.11;100703.98;1721069;82;20317;-61
2021/11/23 01:13:38;;;;;;;;;;;;;;;2.50;57.10;100712.16;1720299;82;20513;-62
2021/11/23 01:16:07;;;;;;;;;;;;;;;2.42;57.31;100710.14;1721250;82;20258;-61
2021/11/23 01:18:37;;;;;;;;;;;;;;;2.43;57.45;100710.99;1721088;83;20246;-61
2021/11/23 01:21:08;;;;;;;;;;;;;;;2.46;57.29;100709.37;1721110;82;20566;-62
2021/11/23 01:23:38;;;;;;;;;;;;;;;2.42;57.14;100706.58;1721031;83;20516;-63
2021/11/23 01:26:06;;;;;;;;;;;;;;;2.39;57.02;100704.15;1721403;83;20194;-61
2021/11/23 01:28:36;;;;;;;;;;;;;;;2.34;57.15;100703.70;1721089;83;20270;-62
2021/11/23 01:31:04;;;;;;;;;;;;;;;2.36;57.34;100704.42;1721142;83;20484;-62
2021/11/23 01:33:32;;;;;;;;;;;;;;;2.38;57.33;100707.34;1721047;82;20195;-61
2021/11/23 01:36:02;;;;;;;;;;;;;;;2.39;57.37;100706.86;1721218;83;20258;-62
2021/11/23 01:38:31;;;;;;;;;;;;;;;2.36;57.37;100707.98;1720417;82;20198;-62
2021/11/23 01:40:59;;;;;;;;;;;;;;;2.37;57.31;100714.25;1721297;83;20241;-61
2021/11/23 01:43:27;;;;;;;;;;;;;;;2.32;57.37;100717.36;1721306;83;20191;-61
2021/11/23 01:45:57;;;;;;;;;;;;;;;2.32;57.37;100717.86;1720819;83;20238;-61
2021/11/23 01:48:25;;;;;;;;;;;;;;;2.32;57.47;100719.21;1721031;83;20571;-62
2021/11/23 01:50:54;;;;;;;;;;;;;;;2.35;57.51;100718.44;1721105;83;20321;-60
2021/11/23 01:53:23;;;;;;;;;;;;;;;2.38;57.43;100722.72;1721078;83;20321;-61
2021/11/23 01:55:52;;;;;;;;;;;;;;;2.38;57.20;100728.13;1726187;81;20190;-60
2021/11/23 01:58:21;;;;;;;;;;;;;;;2.31;57.08;100723.77;1751038;82;20245;-62
2021/11/23 02:00:50;;;;;;;;;;;;;;;2.28;57.10;100720.48;1751629;82;20209;-61
2021/11/23 02:03:19;;;;;;;;;;;;;;;2.25;57.12;100718.05;1750793;82;20589;-60
2021/11/23 02:05:47;;;;;;;;;;;;;;;2.23;57.21;100722.23;1750864;82;20503;-63
2021/11/23 02:08:16;;;;;;;;;;;;;;;2.19;57.35;100712.20;1751375;82;20225;-62
2021/11/23 02:10:45;;;;;;;;;;;;;;;2.20;57.36;100719.31;1727023;82;20181;-61
2021/11/23 02:13:13;;;;;;;;;;;;;;;2.15;57.60;100705.35;1753592;82;20305;-62
2021/11/23 02:15:42;;;;;;;;;;;;;;;2.14;57.81;100714.95;1723033;82;20188;-62
2021/11/23 02:18:15;;;;;;;;;;;;;;;2.15;57.96;100718.01;1751836;82;20495;-63
2021/11/23 02:20:43;;;;;;;;;;;;;;;2.16;58.06;100717.88;1751198;82;20305;-61
2021/11/23 02:23:11;;;;;;;;;;;;;;;2.16;58.23;100719.23;1751035;82;20198;-64
2021/11/23 02:25:40;;;;;;;;;;;;;;;2.17;58.30;100718.73;1751086;82;20317;-62
2021/11/23 02:28:09;;;;;;;;;;;;;;;2.15;58.13;100720.22;1750790;82;20651;-62
2021/11/23 02:30:45;;;;;;;;;;;;;;;2.14;58.07;100722.56;1751082;82;20197;-61
2021/11/23 02:33:14;;;;;;;;;;;;;;;2.04;57.67;100726.20;1751083;82;20288;-60
2021/11/23 02:35:42;;;;;;;;;;;;;;;1.93;57.88;100729.82;1751037;82;20217;-63
2021/11/23 02:38:10;;;;;;;;;;;;;;;1.93;58.11;100733.02;1751344;82;20260;-61
2021/11/23 02:40:39;;;;;;;;;;;;;;;1.95;58.24;100724.28;1751054;82;20201;-61
2021/11/23 02:43:07;;;;;;;;;;;;;;;1.93;58.32;100723.06;1751147;82;20562;-62
2021/11/23 02:45:36;;;;;;;;;;;;;;;1.93;58.72;100728.47;1751344;82;20201;-61
2021/11/23 02:48:07;;;;;;;;;;;;;;;1.97;58.64;100725.89;1750760;82;20190;-60
2021/11/23 02:50:36;;;;;;;;;;;;;;;1.93;58.66;100730.31;1750964;82;20191;-62
2021/11/23 02:53:04;;;;;;;;;;;;;;;1.85;58.85;100731.84;1751059;82;20577;-61
2021/11/23 02:55:36;;;;;;;;;;;;;;;1.78;59.11;100735.22;1751121;82;20229;-63
2021/11/23 02:58:05;;;;;;;;;;;;;;;1.72;59.26;100742.00;1722585;82;20206;-60
2021/11/23 03:00:35;;;;;;;;;;;;;;;1.68;59.51;100742.41;1720928;83;20222;-62
2021/11/23 03:03:04;;;;;;;;;;;;;;;1.71;59.57;100741.64;1721138;83;20183;-62
2021/11/23 03:05:33;;;;;;;;;;;;;;;1.69;59.61;100749.52;1721150;83;20561;-62
2021/11/23 03:08:03;;;;;;;;;;;;;;;1.65;59.80;100738.61;1778843;80;20483;-62
2021/11/23 03:10:31;;;;;;;;;;;;;;;1.65;59.83;100742.17;1790836;80;20660;-62
2021/11/23 03:13:01;;;;;;;;;;;;;;;1.64;59.97;100728.80;1791018;80;20209;-62
2021/11/23 03:15:31;;;;;;;;;;;;;;;1.67;60.10;100736.64;1777580;80;20164;-61
2021/11/23 03:18:00;;;;;;;;;;;;;;;1.66;60.09;100729.03;1773939;81;20474;-62
2021/11/23 03:20:28;;;;;;;;;;;;;;;1.62;60.06;100734.83;1774041;80;20199;-62
2021/11/23 03:22:57;;;;;;;;;;;;;;;1.52;60.26;100734.77;1773959;80;20243;-61
2021/11/23 03:25:25;;;;;;;;;;;;;;;1.48;60.40;100738.22;1774161;81;20191;-62
2021/11/23 03:27:53;;;;;;;;;;;;;;;1.49;60.52;100745.83;1774012;81;20195;-62
2021/11/23 03:30:28;;;;;;;;;;;;;;;1.51;60.46;100746.55;1774227;81;20504;-61
2021/11/23 03:32:59;;;;;;;;;;;;;;;1.49;60.40;100743.98;1773754;80;20164;-62
2021/11/23 03:35:29;;;;;;;;;;;;;;;1.50;60.45;100738.09;1773872;80;20215;-61
2021/11/23 03:37:58;;;;;;;;;;;;;;;1.49;60.44;100738.58;1774029;81;20502;-63
2021/11/23 03:40:27;;;;;;;;;;;;;;;1.49;60.52;100739.93;1774450;81;20236;-61
2021/11/23 03:42:55;;;;;;;;;;;;;;;1.50;60.46;100739.44;1774134;80;20207;-62
2021/11/23 03:45:24;;;;;;;;;;;;;;;1.47;60.42;100735.16;1774155;81;20250;-62
2021/11/23 03:47:53;;;;;;;;;;;;;;;1.40;60.57;100738.02;1773830;81;20160;-61
2021/11/23 03:50:22;;;;;;;;;;;;;;;1.38;60.60;100745.39;1774131;81;20164;-63
2021/11/23 03:52:51;;;;;;;;;;;;;;;1.32;60.71;100744.56;1774051;80;20159;-62
2021/11/23 03:55:20;;;;;;;;;;;;;;;1.24;60.91;100740.27;1773935;81;20195;-61
2021/11/23 03:57:49;;;;;;;;;;;;;;;1.16;61.11;100734.67;1797086;79;20210;-61
2021/11/23 04:00:18;;;;;;;;;;;;;;;1.15;61.34;100743.75;1806452;79;20200;-62
2021/11/23 04:02:49;;;;;;;;;;;;;;;1.09;61.52;100737.52;1808850;79;20137;-61
2021/11/23 04:05:19;;;;;;;;;;;;;;;1.02;61.58;100737.67;1811802;79;20153;-60
2021/11/23 04:07:48;;;;;;;;;;;;;;;0.97;61.78;100731.80;1811816;79;20137;-62
2021/11/23 04:10:17;;;;;;;;;;;;;;;0.97;61.97;100731.80;1811925;79;20185;-62
2021/11/23 04:12:46;;;;;;;;;;;;;;;0.98;62.01;100734.86;1811885;79;20209;-65
2021/11/23 04:15:15;;;;;;;;;;;;;;;0.99;61.96;100724.44;1811774;79;20180;-61
2021/11/23 04:17:43;;;;;;;;;;;;;;;1.02;62.02;100726.88;1811980;79;20172;-61
2021/11/23 04:20:12;;;;;;;;;;;;;;;1.08;61.96;100730.41;1812172;79;20208;-63
2021/11/23 04:22:41;;;;;;;;;;;;;;;1.11;61.81;100724.27;1811893;79;20204;-61
2021/11/23 04:25:10;;;;;;;;;;;;;;;1.14;61.74;100725.84;1812101;79;20561;-65
2021/11/23 04:27:39;;;;;;;;;;;;;;;1.18;61.82;100724.60;1811935;79;20165;-62
2021/11/23 04:30:09;;;;;;;;;;;;;;;1.18;61.97;100728.16;1811919;79;20506;-61
2021/11/23 04:32:37;;;;;;;;;;;;;;;1.20;61.99;100728.88;1811898;79;20577;-62
2021/11/23 04:35:07;;;;;;;;;;;;;;;1.23;62.02;100726.41;1811860;79;20241;-63
2021/11/23 04:37:35;;;;;;;;;;;;;;;1.26;61.99;100724.31;1811938;79;20176;-62
2021/11/23 04:40:07;;;;;;;;;;;;;;;1.27;61.94;100715.23;1812298;79;20212;-62
2021/11/23 04:42:37;;;;;;;;;;;;;;;1.30;61.92;100720.00;1811830;79;20463;-62
2021/11/23 04:45:07;;;;;;;;;;;;;;;1.31;61.98;100713.66;1812182;79;20456;-62
2021/11/23 04:47:36;;;;;;;;;;;;;;;1.32;61.99;100711.31;1811775;79;20177;-61
2021/11/23 04:50:05;;;;;;;;;;;;;;;1.28;62.08;100703.94;1812057;79;20157;-61
2021/11/23 04:52:34;;;;;;;;;;;;;;;1.31;62.07;100703.71;1812137;79;20228;-62
2021/11/23 04:55:03;;;;;;;;;;;;;;;1.33;62.00;100707.14;1811782;79;20149;-62
2021/11/23 04:57:32;;;;;;;;;;;;;;;1.38;61.79;100698.64;1817115;79;20215;-62
2021/11/23 05:00:01;;;;;;;;;;;;;;;1.39;61.64;100697.16;1823195;79;20157;-60
2021/11/23 05:02:30;;;;;;;;;;;;;;;1.39;61.54;100680.97;1823401;78;20181;-62
2021/11/23 05:04:58;;;;;;;;;;;;;;;1.37;61.42;100682.94;1823137;79;20455;-62
2021/11/23 05:07:27;;;;;;;;;;;;;;;1.33;61.43;100686.89;1823099;79;20168;-61
2021/11/23 05:09:55;;;;;;;;;;;;;;;1.26;61.66;100677.58;1823020;79;20133;-61
2021/11/23 05:12:24;;;;;;;;;;;;;;;1.20;61.97;100676.75;1822938;79;20240;-62
2021/11/23 05:14:52;;;;;;;;;;;;;;;1.20;62.17;100679.45;1823127;79;20172;-63
2021/11/23 05:17:21;;;;;;;;;;;;;;;1.18;62.43;100678.72;1822912;79;20212;-66
2021/11/23 05:19:50;;;;;;;;;;;;;;;1.19;62.66;100692.58;1823131;79;20176;-62
2021/11/23 05:22:18;;;;;;;;;;;;;;;1.18;62.80;100690.86;1822969;79;20180;-61
2021/11/23 05:24:47;;;;;;;;;;;;;;;1.21;62.89;100696.00;1822924;79;20438;-62
2021/11/23 05:27:15;;;;;;;;;;;;;;;1.23;62.69;100689.98;1823034;79;20136;-62
2021/11/23 05:29:44;;;;;;;;;;;;;;;1.25;62.72;100692.91;1822926;79;20176;-62
2021/11/23 05:32:14;;;;;;;;;;;;;;;1.28;62.61;100699.89;1823007;78;20211;-62
2021/11/23 05:34:44;;;;;;;;;;;;;;;1.33;62.58;100712.53;1823222;79;20196;-61
2021/11/23 05:37:12;;;;;;;;;;;;;;;1.35;62.68;100712.41;1822670;78;20145;-61
2021/11/23 05:39:40;;;;;;;;;;;;;;;1.37;62.60;100729.33;1823405;79;20204;-62
2021/11/23 05:42:08;;;;;;;;;;;;;;;1.36;62.62;100712.77;1823257;79;20204;-63
2021/11/23 05:44:37;;;;;;;;;;;;;;;1.36;62.56;100714.97;1823041;78;20443;-63
2021/11/23 05:47:06;;;;;;;;;;;;;;;1.38;62.49;100717.05;1823418;79;20208;-64
2021/11/23 05:49:35;;;;;;;;;;;;;;;1.41;62.50;100719.98;1823265;79;20138;-62
2021/11/23 05:52:04;;;;;;;;;;;;;;;1.44;62.32;100730.52;1822973;78;20200;-61
2021/11/23 05:54:34;;;;;;;;;;;;;;;1.42;62.42;100742.80;1823154;79;20212;-62
2021/11/23 05:57:03;;;;;;;;;;;;;;;1.42;62.59;100741.45;1821372;79;20217;-65
2021/11/23 05:59:31;;;;;;;;;;;;;;;1.42;62.60;100744.14;1812530;79;20476;-61
2021/11/23 06:02:00;;;;;;;;;;;;;;;1.40;62.58;100759.62;1812083;79;20193;-61
2021/11/23 06:04:29;;;;;;;;;;;;;;;1.40;62.57;100771.77;1803112;79;20566;-62
2021/11/23 06:06:57;;;;;;;;;;;;;;;1.41;62.48;100786.13;1801204;80;20451;-61
2021/11/23 06:09:25;;;;;;;;;;;;;;;1.40;62.37;100773.11;1779316;80;20440;-61
2021/11/23 06:11:55;;;;;;;;;;;;;;;1.39;62.42;100785.39;1800673;79;20177;-61
2021/11/23 06:14:25;;;;;;;;;;;;;;;1.39;62.43;100779.50;1800718;80;20145;-62
2021/11/23 06:16:54;;;;;;;;;;;;;;;1.40;62.54;100781.22;1801137;80;20185;-61
2021/11/23 06:19:23;;;;;;;;;;;;;;;1.41;62.51;100792.87;1800840;80;20176;-61
2021/11/23 06:21:51;;;;;;;;;;;;;;;1.42;62.53;100787.34;1800794;80;20594;-64
2021/11/23 06:24:19;;;;;;;;;;;;;;;1.42;62.52;100787.83;1801037;80;20192;-62
2021/11/23 06:26:48;;;;;;;;;;;;;;;1.46;62.54;100798.25;1800582;80;20498;-62
2021/11/23 06:29:16;;;;;;;;;;;;;;;1.45;62.53;100790.28;1754511;80;20448;-63
2021/11/23 06:31:45;;;;;;;;;;;;;;;1.45;62.55;100787.58;1800789;80;20498;-63
2021/11/23 06:34:14;;;;;;;;;;;;;;;1.46;62.61;100794.20;1800799;80;20198;-62
2021/11/23 06:36:43;;;;;;;;;;;;;;;1.50;62.68;100789.39;1800857;79;20256;-61
2021/11/23 06:39:11;;;;;;;;;;;;;;;1.55;62.76;100799.31;1801151;79;20447;-62
2021/11/23 06:41:40;;;;;;;;;;;;;;;1.55;62.69;100793.91;1801266;80;20440;-63
2021/11/23 06:44:10;;;;;;;;;;;;;;;1.57;62.71;100803.59;1743474;82;20554;-61
2021/11/23 06:46:39;;;;;;;;;;;;;;;1.62;62.47;100796.95;1743447;82;20233;-63
2021/11/23 06:49:08;;;;;;;;;;;;;;;1.66;62.32;100799.75;1743159;82;20243;-63
2021/11/23 06:51:36;;;;;;;;;;;;;;;1.69;62.29;100804.89;1743475;82;20231;-61
2021/11/23 06:54:05;;;;;;;;;;;;;;;1.70;62.12;100807.95;1743282;82;20503;-61
2021/11/23 06:56:34;;;;;;;;;;;;;;;1.71;62.16;100811.02;1742971;82;20221;-62
2021/11/23 06:59:03;;;;;;;;;;;;;;;1.72;62.19;100811.38;1722288;82;20501;-62
2021/11/23 07:01:33;;;;;;;;;;;;;;;1.75;62.20;100808.41;1718220;83;20267;-62
2021/11/23 07:04:02;;;;;;;;;;;;;;;1.79;62.13;100808.52;1717780;82;20278;-61
2021/11/23 07:06:31;;;;;;;;;;;;;;;1.83;61.98;100808.12;1717848;83;20206;-61
2021/11/23 07:09:00;;;;;;;;;;;;;;;1.85;61.93;100814.74;1751321;81;20195;-63
2021/11/23 07:11:30;;;;;;;;;;;;;;;1.92;61.87;100809.17;1773765;79;20156;-63
2021/11/23 07:13:59;;;;;;;;;;;;;;;1.97;61.74;100806.10;1773795;79;20485;-63
2021/11/23 07:16:27;;;;;;;;;;;;;;;2.01;61.55;100808.41;1773959;80;20244;-62
2021/11/23 07:18:56;;;;;;;;;;;;;;;2.03;61.51;100801.02;1773973;81;20211;-61
2021/11/23 07:21:25;;;;;;;;;;;;;;;2.05;61.34;100807.65;1773923;80;20502;-62
2021/11/23 07:23:57;;;;;;;;;;;;;;;2.07;61.24;100809.23;1773824;80;20183;-61
2021/11/23 07:26:27;;;;;;;;;;;;;;;2.13;61.15;100816.80;1773967;80;20156;-63
2021/11/23 07:28:55;;;;;;;;;;;;;;;2.23;60.80;100807.39;1773700;81;20175;-61
2021/11/23 07:31:23;;;;;;;;;;;;;;;2.45;60.67;100814.48;1773885;80;20219;-60
2021/11/23 07:33:52;;;;;;;;;;;;;;;2.72;60.16;100813.41;1774101;80;20442;-59
2021/11/23 07:36:22;;;;;;;;;;;;;;;3.05;59.56;100809.51;1773951;81;20525;-60
2021/11/23 07:38:50;;;;;;;;;;;;;;;3.31;58.68;100813.92;1773899;79;20155;-61
2021/11/23 07:41:19;;;;;;;;;;;;;;;3.53;58.02;100806.52;1774147;79;20215;-61
2021/11/23 07:43:50;;;;;;;;;;;;;;;3.72;57.36;100810.58;1773959;81;20152;-60
2021/11/23 07:46:18;;;;;;;;;;;;;;;3.96;57.13;100806.95;1774052;81;20152;-60
2021/11/23 07:48:48;;;;;;;;;;;;;;;4.24;56.51;100807.88;1773976;81;20147;-60
2021/11/23 07:51:17;;;;;;;;;;;;;;;4.44;55.87;100808.67;1774201;80;20160;-61
2021/11/23 07:53:47;;;;;;;;;;;;;;;4.66;55.53;100792.05;1774005;81;20159;-58
2021/11/23 07:56:16;;;;;;;;;;;;;;;4.95;54.61;100793.75;1774241;81;20211;-60
2021/11/23 07:58:45;;;;;;;;;;;;;;;5.17;53.66;100796.03;1793044;79;20525;-61
2021/11/23 08:01:13;;;;;;;;;;;;;;;5.23;52.63;100788.66;1806559;79;20181;-60
2021/11/23 08:03:42;;;;;;;;;;;;;;;5.25;52.58;100792.08;1807726;79;20156;-62
2021/11/23 08:06:11;;;;;;;;;;;;;;;5.32;52.63;100790.96;1811708;79;20176;-61
2021/11/23 08:08:40;;;;;;;;;;;;;;;5.45;52.25;100796.02;1811919;79;20157;-60
2021/11/23 08:11:08;;;;;;;;;;;;;;;5.49;51.14;100786.03;1811945;79;20145;-61
2021/11/23 08:13:37;;;;;;;;;;;;;;;5.39;51.33;100791.55;1812097;79;20150;-60
2021/11/23 08:16:05;;;;;;;;;;;;;;;5.35;51.37;100796.09;1811775;79;20149;-63
2021/11/23 08:18:34;;;;;;;;;;;;;;;5.27;51.60;100788.70;1811809;79;20192;-60
2021/11/23 08:21:03;;;;;;;;;;;;;;;5.24;51.80;100786.30;1812002;79;20153;-62
2021/11/23 08:23:32;;;;;;;;;;;;;;;5.16;51.96;100783.46;1811832;79;20157;-61
2021/11/23 08:26:02;;;;;;;;;;;;;;;5.09;52.13;100785.08;1811728;79;20189;-62
2021/11/23 08:28:31;;;;;;;;;;;;;;;4.96;51.95;100781.38;1811799;79;20169;-60
2021/11/23 08:30:59;;;;;;;;;;;;;;;4.83;52.17;100780.03;1811819;79;20141;-61
2021/11/23 08:33:27;;;;;;;;;;;;;;;4.71;52.39;100777.52;1811602;79;20210;-59
2021/11/23 08:35:56;;;;;;;;;;;;;;;4.57;52.80;100773.95;1811920;79;20261;-61
2021/11/23 08:38:24;;;;;;;;;;;;;;;4.46;53.10;100780.39;1811828;79;20193;-60
2021/11/23 08:40:52;;;;;;;;;;;;;;;4.33;53.28;100779.02;1811987;79;20161;-61
2021/11/23 08:43:21;;;;;;;;;;;;;;;4.24;53.86;100785.33;1811914;79;20347;-61
2021/11/23 08:45:49;;;;;;;;;;;;;;;4.13;53.97;100779.08;1811757;79;20173;-62
2021/11/23 08:48:18;;;;;;;;;;;;;;;4.00;54.30;100781.25;1811988;79;20576;-61
2021/11/23 08:50:46;;;;;;;;;;;;;;;3.92;54.66;100785.19;1811690;79;20201;-61
2021/11/23 08:53:15;;;;;;;;;;;;;;;3.92;54.93;100785.19;1811803;79;20146;-60
2021/11/23 08:55:44;;;;;;;;;;;;;;;3.92;55.08;100784.34;1811726;79;20260;-61
2021/11/23 08:58:14;;;;;;;;;;;;;;;3.93;55.19;100781.48;1811737;78;20193;-71
2021/11/23 09:00:44;;;;;;;;;;;;;;;3.91;54.90;100779.41;1804813;78;20166;-65
2021/11/23 09:03:12;;;;;;;;;;;;;;;3.89;56.05;100775.97;1797875;79;20205;-64
2021/11/23 09:05:44;;;;;;;;;;;;;;;3.88;55.19;100767.98;1811775;79;20196;-64
2021/11/23 09:08:12;;;;;;;;;;;;;;;3.82;55.08;100773.48;1811508;79;20507;-65
2021/11/23 09:10:41;;;;;;;;;;;;;;;3.79;55.31;100762.43;1807107;79;20550;-64
2021/11/23 09:13:09;;;;;;;;;;;;;;;3.83;55.30;100757.58;1794130;80;20134;-64
2021/11/23 09:15:38;;;;;;;;;;;;;;;3.83;55.18;100758.43;1794223;80;20197;-64
2021/11/23 09:18:09;;;;;;;;;;;;;;;3.81;55.31;100757.72;1794790;79;20213;-62
2021/11/23 09:20:38;;;;;;;;;;;;;;;3.80;55.30;100760.08;1794292;80;20162;-63
2021/11/23 09:23:11;;;;;;;;;;;;;;;3.76;55.44;100764.08;1806675;79;20173;-65
2021/11/23 09:25:40;;;;;;;;;;;;;;;3.74;55.44;100761.16;1810995;79;20181;-64
2021/11/23 09:28:09;;;;;;;;;;;;;;;3.68;55.40;100754.96;1678126;85;20647;-64
2021/11/23 09:30:39;;;;;;;;;;;;;;;3.71;55.45;100757.38;1680954;85;20192;-62
2021/11/23 09:33:08;;;;;;;;;;;;;;;3.69;55.39;100753.46;1686220;85;20518;-63
2021/11/23 09:44:44;;;;;;;;;;;;;;;3.52;58.42;100753.34;1686374;85;20208;-63
2021/11/23 09:47:37;;;;;;;;;;;;;;;3.56;56.89;100749.34;1686119;85;20297;-64
2021/11/23 09:50:24;;;;;;;;;;;;;;;3.61;56.43;100751.12;1679701;85;20182;-64
2021/11/23 09:52:55;;;;;;;;;;;;;;;3.64;57.01;100754.89;1735969;80;20534;-62
2021/11/23 09:55:39;;;;;;;;;;;;;;;3.62;56.63;100751.47;1795812;80;20201;-64
2021/11/23 09:58:12;;;;;;;;;;;;;;;3.57;56.69;100753.76;1798982;80;20213;-64
2021/11/23 10:00:44;;;;;;;;;;;;;;;3.52;56.92;100739.80;1805517;79;20177;-63
2021/11/23 10:03:27;;;;;;;;;;;;;;;3.50;57.19;100739.44;1814019;79;20201;-64
2021/11/23 10:06:15;;;;;;;;;;;;;;;3.50;57.46;100745.36;1772380;81;20222;-63
2021/11/23 10:08:52;;;;;;;;;;;;;;;3.55;57.47;100736.30;1740145;82;20207;-63
2021/11/23 10:11:29;;;;;;;;;;;;;;;3.61;57.26;100735.72;1772823;81;20171;-63
2021/11/23 10:14:01;;;;;;;;;;;;;;;3.63;57.18;100734.22;1773497;81;20450;-62
2021/11/23 10:16:42;;;;;;;;;;;;;;;3.64;57.29;100729.16;1729493;82;20241;-61
2021/11/23 10:19:12;;;;;;;;;;;;;;;3.68;57.41;100723.80;1749235;82;20273;-62
2021/11/23 10:21:56;;;;;;;;;;;;;;;3.76;56.95;100728.84;1748854;82;20186;-63
2021/11/23 10:24:24;;;;;;;;;;;;;;;3.85;56.96;100714.91;1748964;82;20249;-63
2021/11/23 10:26:54;;;;;;;;;;;;;;;3.96;56.45;100717.48;1748999;82;20213;-61
2021/11/23 10:29:22;;;;;;;;;;;;;;;4.00;56.46;100721.61;1748863;82;20560;-62
2021/11/23 10:31:52;;;;;;;;;;;;;;;4.05;56.95;100721.16;1748838;82;20210;-63
2021/11/23 10:34:21;;;;;;;;;;;;;;;4.07;56.40;100711.87;1749053;82;20245;-64
2021/11/23 10:36:50;;;;;;;;;;;;;;;4.06;56.10;100700.67;1748825;82;20187;-63
2021/11/23 10:39:26;;;;;;;;;;;;;;;3.97;55.83;100700.72;1748621;82;20266;-63
2021/11/23 10:41:56;;;;;;;;;;;;;;;3.88;56.22;100698.36;1748148;82;20557;-63
2021/11/23 10:44:28;;;;;;;;;;;;;;;3.89;56.50;100693.29;1748417;82;20249;-63
2021/11/23 10:47:05;;;;;;;;;;;;;;;3.96;56.59;100698.50;1748247;82;20233;-61
2021/11/23 10:52:39;;;;;;;;;;;;;;;3.96;55.74;100693.58;1803877;79;20475;-65
2021/11/23 10:55:11;;;;;;;;;;;;;;;3.92;55.87;100688.95;1807369;79;20232;-63
2021/11/23 10:57:56;;;;;;;;;;;;;;;3.95;55.97;100686.45;1811500;79;20467;-64
2021/11/23 11:00:28;;;;;;;;;;;;;;;3.96;56.13;100690.38;1804471;79;20189;-63
2021/11/23 11:03:01;;;;;;;;;;;;;;;3.96;55.92;100678.67;1805914;79;20145;-65
2021/11/23 11:05:28;;;;;;;;;;;;;;;3.93;56.10;100677.61;1806447;79;20475;-63
2021/11/23 11:10:52;;;;;;;;;;;;;;;3.93;56.19;100678.97;1806164;79;20157;-64
2021/11/23 11:13:22;;;;;;;;;;;;;;;3.93;56.24;100679.83;1751524;79;20319;-62
2021/11/23 11:15:56;;;;;;;;;;;;;;;3.93;56.37;100681.18;1776701;79;20487;-65
2021/11/23 11:18:27;;;;;;;;;;;;;;;3.91;56.40;100669.63;1807337;79;20176;-63
2021/11/23 11:21:02;;;;;;;;;;;;;;;3.87;56.40;100661.91;1776253;79;20157;-64
2021/11/23 11:26:38;;;;;;;;;;;;;;;3.86;56.74;100656.99;1806761;79;20196;-64
2021/11/23 11:29:04;;;;;;;;;;;;;;;3.87;56.87;100651.92;1806845;79;20196;-62
2021/11/23 11:31:47;;;;;;;;;;;;;;;3.91;57.05;100657.44;1806596;79;20150;-64
2021/11/23 11:34:23;;;;;;;;;;;;;;;3.96;57.08;100657.84;1806520;79;20153;-63
2021/11/23 11:37:15;;;;;;;;;;;;;;;4.01;56.97;100658.25;1806659;79;20204;-64
2021/11/23 11:39:48;;;;;;;;;;;;;;;4.06;57.04;100649.66;1806602;79;20545;-63
2021/11/23 11:42:25;;;;;;;;;;;;;;;4.04;56.88;100641.69;1806709;79;20141;-65
2021/11/23 11:44:54;;;;;;;;;;;;;;;4.03;56.85;100652.67;1806546;79;20271;-63
2021/11/23 11:47:33;;;;;;;;;;;;;;;3.99;56.87;100646.70;1806897;79;20173;-65
2021/11/23 11:50:07;;;;;;;;;;;;;;;4.01;57.01;100646.05;1806685;79;20251;-63
2021/11/23 11:53:00;;;;;;;;;;;;;;;4.06;56.93;100643.74;1806586;79;20253;-65
2021/11/23 11:55:32;;;;;;;;;;;;;;;4.13;56.74;100650.77;1806764;79;20474;-64
2021/11/23 12:00:42;;;;;;;;;;;;;;;4.14;56.75;100650.63;1813948;79;20216;-64
2021/11/23 12:03:18;;;;;;;;;;;;;;;4.14;56.65;100651.13;1820859;79;20148;-65
2021/11/23 12:05:58;;;;;;;;;;;;;;;4.14;57.13;100656.05;1820054;79;20215;-65
2021/11/23 12:08:30;;;;;;;;;;;;;;;4.16;57.02;100654.54;1822156;79;20233;-63
2021/11/23 12:14:06;;;;;;;;;;;;;;;4.14;56.63;100649.27;1822573;79;20210;-64
2021/11/23 12:16:43;;;;;;;;;;;;;;;4.16;56.77;100650.97;1822827;79;20216;-64
2021/11/23 12:19:36;;;;;;;;;;;;;;;4.14;56.51;100647.91;1822806;78;20439;-64
2021/11/23 12:22:03;;;;;;;;;;;;;;;4.09;56.40;100639.38;1789601;80;20442;-64
2021/11/23 12:24:38;;;;;;;;;;;;;;;4.07;56.51;100637.81;1789901;80;20186;-64
2021/11/23 12:27:14;;;;;;;;;;;;;;;4.06;56.63;100636.96;1789661;80;20179;-68
2021/11/23 12:29:44;;;;;;;;;;;;;;;4.07;56.57;100645.95;1693956;85;20285;-65
2021/11/23 12:32:21;;;;;;;;;;;;;;;4.08;56.60;100643.09;1694061;85;20249;-64
2021/11/23 12:34:54;;;;;;;;;;;;;;;4.10;56.82;100653.28;1680775;84;20478;-65
2021/11/23 12:37:37;;;;;;;;;;;;;;;4.08;56.62;100644.44;1672840;85;20225;-64
2021/11/23 12:40:21;;;;;;;;;;;;;;;4.05;56.57;100644.75;1693387;85;20256;-62
2021/11/23 12:42:55;;;;;;;;;;;;;;;4.06;56.66;100648.31;1670925;85;21081;-64
2021/11/23 12:45:38;;;;;;;;;;;;;;;4.08;56.92;100644.95;1664920;85;20199;-65
2021/11/23 12:48:10;;;;;;;;;;;;;;;4.06;56.80;100650.52;1663360;85;20215;-63
2021/11/23 12:50:39;;;;;;;;;;;;;;;4.04;56.83;100651.67;1648862;86;20482;-63
2021/11/23 12:53:10;;;;;;;;;;;;;;;4.01;56.88;100644.69;1648960;87;20489;-64
2021/11/23 12:55:39;;;;;;;;;;;;;;;4.01;56.86;100646.05;1758323;81;20202;-64
2021/11/23 12:58:09;;;;;;;;;;;;;;;4.02;56.99;100639.63;1766243;80;20171;-64
2021/11/23 13:00:40;;;;;;;;;;;;;;;4.02;56.99;100645.55;1781782;80;20242;-64
2021/11/23 13:03:11;;;;;;;;;;;;;;;4.00;56.95;100642.98;1779423;80;20135;-64
2021/11/23 13:05:43;;;;;;;;;;;;;;;4.00;56.92;100636.20;1780278;81;20151;-63
2021/11/23 13:08:14;;;;;;;;;;;;;;;4.00;56.92;100638.06;1780031;81;20515;-63
2021/11/23 13:10:47;;;;;;;;;;;;;;;3.99;56.95;100630.94;1779298;80;20182;-62
2021/11/23 13:13:18;;;;;;;;;;;;;;;3.98;57.04;100626.02;1779590;81;20554;-64
2021/11/23 13:15:48;;;;;;;;;;;;;;;4.00;57.13;100631.28;1780123;80;20171;-63
2021/11/23 13:18:20;;;;;;;;;;;;;;;4.00;57.20;100633.49;1779728;80;20219;-63
2021/11/23 13:20:59;;;;;;;;;;;;;;;3.99;57.27;100630.94;1780067;81;20499;-64
2021/11/23 13:23:31;;;;;;;;;;;;;;;3.98;57.42;100622.45;1779603;81;20156;-63
2021/11/23 13:26:04;;;;;;;;;;;;;;;4.00;57.44;100632.14;1779638;81;20301;-63
2021/11/23 13:28:38;;;;;;;;;;;;;;;4.03;58.85;100625.56;1779870;81;20254;-64